sensor_id;sensor_type;location;lat;lon;timestamp;pressure;altitude;pressure_sealevel;temperature;humidity
37792;BME280;29527;55.766;37.570;2023-07-29T00:00:49;98826.78;;;16.76;75.78
37792;BME280;29527;55.766;37.570;2023-07-29T00:03:15;98815.38;;;16.81;75.47
37792;BME280;29527;55.766;37.570;2023-07-29T00:05:40;98811.25;;;16.85;75.52
37792;BME280;29527;55.766;37.570;2023-07-29T00:08:06;98808.38;;;16.86;75.11
37792;BME280;29527;55.766;37.570;2023-07-29T00:10:36;98821.69;;;16.88;75.24
37792;BME280;29527;55.766;37.570;2023-07-29T00:13:03;98821.25;;;16.84;75.29
37792;BME280;29527;55.766;37.570;2023-07-29T00:15:29;98831.22;;;16.84;74.97
37792;BME280;29527;55.766;37.570;2023-07-29T00:17:54;98832.88;;;16.85;75.08
37792;BME280;29527;55.766;37.570;2023-07-29T00:20:20;98829.38;;;16.84;74.75
37792;BME280;29527;55.766;37.570;2023-07-29T00:22:45;98828.72;;;16.82;74.97
37792;BME280;29527;55.766;37.570;2023-07-29T00:25:11;98829.53;;;16.83;75.29
37792;BME280;29527;55.766;37.570;2023-07-29T00:27:36;98830.19;;;16.85;74.90
37792;BME280;29527;55.766;37.570;2023-07-29T00:30:02;98819.97;;;16.80;74.95
37792;BME280;29527;55.766;37.570;2023-07-29T00:32:30;98825.44;;;16.87;74.63
37792;BME280;29527;55.766;37.570;2023-07-29T00:34:56;98827.41;;;16.93;74.79
37792;BME280;29527;55.766;37.570;2023-07-29T00:37:22;98840.53;;;16.96;74.53
37792;BME280;29527;55.766;37.570;2023-07-29T00:39:47;98836.97;;;16.96;73.89
37792;BME280;29527;55.766;37.570;2023-07-29T00:42:12;98831.78;;;16.94;73.78
37792;BME280;29527;55.766;37.570;2023-07-29T00:44:38;98813.91;;;16.78;73.85
37792;BME280;29527;55.766;37.570;2023-07-29T00:47:04;98834.56;;;16.86;74.01
37792;BME280;29527;55.766;37.570;2023-07-29T00:49:32;98823.50;;;16.81;73.93
37792;BME280;29527;55.766;37.570;2023-07-29T00:51:58;98813.63;;;16.73;74.21
37792;BME280;29527;55.766;37.570;2023-07-29T00:54:23;98816.97;;;16.75;74.12
37792;BME280;29527;55.766;37.570;2023-07-29T00:56:49;98814.47;;;16.73;74.69
37792;BME280;29527;55.766;37.570;2023-07-29T00:59:15;98812.31;;;16.69;74.49
37792;BME280;29527;55.766;37.570;2023-07-29T01:01:41;98822.97;;;16.70;74.47
37792;BME280;29527;55.766;37.570;2023-07-29T01:04:06;98813.19;;;16.69;74.91
37792;BME280;29527;55.766;37.570;2023-07-29T01:09:05;98805.34;;;16.59;74.38
37792;BME280;29527;55.766;37.570;2023-07-29T01:16:56;98793.69;;;16.59;74.75
37792;BME280;29527;55.766;37.570;2023-07-29T01:19:39;98785.78;;;16.57;75.28
37792;BME280;29527;55.766;37.570;2023-07-29T01:22:07;98788.69;;;16.56;75.08
37792;BME280;29527;55.766;37.570;2023-07-29T01:24:34;98783.66;;;16.53;75.16
37792;BME280;29527;55.766;37.570;2023-07-29T01:26:59;98786.72;;;16.49;75.13
37792;BME280;29527;55.766;37.570;2023-07-29T01:29:27;98788.41;;;16.50;75.01
37792;BME280;29527;55.766;37.570;2023-07-29T01:31:56;98780.56;;;16.56;75.34
37792;BME280;29527;55.766;37.570;2023-07-29T01:34:48;98780.47;;;16.64;75.26
37792;BME280;29527;55.766;37.570;2023-07-29T01:37:19;98767.81;;;16.49;75.14
37792;BME280;29527;55.766;37.570;2023-07-29T01:39:49;98780.47;;;16.49;75.01
37792;BME280;29527;55.766;37.570;2023-07-29T01:42:15;98776.69;;;16.43;75.54
37792;BME280;29527;55.766;37.570;2023-07-29T01:44:41;98769.97;;;16.39;75.51
37792;BME280;29527;55.766;37.570;2023-07-29T01:47:08;98763.00;;;16.30;75.11
37792;BME280;29527;55.766;37.570;2023-07-29T01:49:33;98755.16;;;16.35;75.34
37792;BME280;29527;55.766;37.570;2023-07-29T01:51:59;98748.84;;;16.28;75.27
37792;BME280;29527;55.766;37.570;2023-07-29T01:54:24;98753.88;;;16.31;75.95
37792;BME280;29527;55.766;37.570;2023-07-29T01:56:50;98765.69;;;16.30;75.81
37792;BME280;29527;55.766;37.570;2023-07-29T01:59:16;98769.81;;;16.26;75.82
37792;BME280;29527;55.766;37.570;2023-07-29T02:01:42;98761.22;;;16.22;75.96
37792;BME280;29527;55.766;37.570;2023-07-29T02:04:08;98770.63;;;16.26;76.26
37792;BME280;29527;55.766;37.570;2023-07-29T02:06:33;98764.03;;;16.29;76.13
37792;BME280;29527;55.766;37.570;2023-07-29T02:09:00;98745.94;;;16.14;75.98
37792;BME280;29527;55.766;37.570;2023-07-29T02:11:25;98773.63;;;16.31;76.02
37792;BME280;29527;55.766;37.570;2023-07-29T02:13:54;98782.75;;;16.30;76.30
37792;BME280;29527;55.766;37.570;2023-07-29T02:16:20;98784.06;;;16.34;76.18
37792;BME280;29527;55.766;37.570;2023-07-29T02:18:46;98790.66;;;16.32;76.20
37792;BME280;29527;55.766;37.570;2023-07-29T02:21:12;98802.84;;;16.43;76.19
37792;BME280;29527;55.766;37.570;2023-07-29T02:23:37;98803.69;;;16.43;75.70
37792;BME280;29527;55.766;37.570;2023-07-29T02:26:03;98815.25;;;16.52;75.79
37792;BME280;29527;55.766;37.570;2023-07-29T02:28:28;98824.66;;;16.56;75.92
37792;BME280;29527;55.766;37.570;2023-07-29T02:31:19;98820.25;;;16.70;75.75
37792;BME280;29527;55.766;37.570;2023-07-29T02:33:45;98816.34;;;16.58;75.86
37792;BME280;29527;55.766;37.570;2023-07-29T02:36:12;98821.38;;;16.61;75.83
37792;BME280;29527;55.766;37.570;2023-07-29T02:38:38;98812.81;;;16.57;75.82
37792;BME280;29527;55.766;37.570;2023-07-29T02:41:04;98818.03;;;16.59;75.63
37792;BME280;29527;55.766;37.570;2023-07-29T02:43:29;98778.75;;;16.41;75.79
37792;BME280;29527;55.766;37.570;2023-07-29T02:45:55;98809.75;;;16.60;75.64
37792;BME280;29527;55.766;37.570;2023-07-29T02:48:20;98793.34;;;16.47;75.69
37792;BME280;29527;55.766;37.570;2023-07-29T02:50:46;98802.44;;;16.61;75.75
37792;BME280;29527;55.766;37.570;2023-07-29T02:53:11;98791.47;;;16.62;75.61
37792;BME280;29527;55.766;37.570;2023-07-29T02:55:40;98780.94;;;16.68;75.77
37792;BME280;29527;55.766;37.570;2023-07-29T02:58:06;98782.88;;;16.59;75.60
37792;BME280;29527;55.766;37.570;2023-07-29T03:00:32;98787.25;;;16.60;75.82
37792;BME280;29527;55.766;37.570;2023-07-29T03:02:58;98806.38;;;16.58;76.04
37792;BME280;29527;55.766;37.570;2023-07-29T03:05:24;98790.34;;;16.57;75.76
37792;BME280;29527;55.766;37.570;2023-07-29T03:07:50;98795.56;;;16.58;75.67
37792;BME280;29527;55.766;37.570;2023-07-29T03:10:15;98802.84;;;16.58;75.93
37792;BME280;29527;55.766;37.570;2023-07-29T03:12:41;98788.69;;;16.56;76.06
37792;BME280;29527;55.766;37.570;2023-07-29T03:15:07;98791.19;;;16.57;75.94
37792;BME280;29527;55.766;37.570;2023-07-29T03:17:32;98791.00;;;16.59;76.13
37792;BME280;29527;55.766;37.570;2023-07-29T03:19:58;98751.72;;;16.41;76.01
37792;BME280;29527;55.766;37.570;2023-07-29T03:22:23;98779.81;;;16.62;75.77
37792;BME280;29527;55.766;37.570;2023-07-29T03:24:49;98773.75;;;16.60;76.08
37792;BME280;29527;55.766;37.570;2023-07-29T03:27:14;98770.66;;;16.63;76.21
37792;BME280;29527;55.766;37.570;2023-07-29T03:29:41;98765.75;;;16.67;76.56
37792;BME280;29527;55.766;37.570;2023-07-29T03:32:07;98765.66;;;16.60;76.08
37792;BME280;29527;55.766;37.570;2023-07-29T03:34:33;98753.81;;;16.61;76.31
37792;BME280;29527;55.766;37.570;2023-07-29T03:37:00;98768.81;;;16.63;76.00
37792;BME280;29527;55.766;37.570;2023-07-29T03:39:26;98763.81;;;16.60;75.88
37792;BME280;29527;55.766;37.570;2023-07-29T03:41:52;98764.06;;;16.65;75.66
37792;BME280;29527;55.766;37.570;2023-07-29T03:44:17;98760.88;;;16.62;76.51
37792;BME280;29527;55.766;37.570;2023-07-29T03:46:44;98751.09;;;16.61;76.59
37792;BME280;29527;55.766;37.570;2023-07-29T03:49:10;98749.06;;;16.63;76.88
37792;BME280;29527;55.766;37.570;2023-07-29T03:51:36;98750.38;;;16.67;76.74
37792;BME280;29527;55.766;37.570;2023-07-29T03:54:01;98741.88;;;16.70;76.66
37792;BME280;29527;55.766;37.570;2023-07-29T03:56:27;98739.19;;;16.70;76.78
37792;BME280;29527;55.766;37.570;2023-07-29T03:58:53;98736.91;;;16.74;76.46
37792;BME280;29527;55.766;37.570;2023-07-29T04:01:18;98734.69;;;16.77;76.35
37792;BME280;29527;55.766;37.570;2023-07-29T04:03:45;98731.78;;;16.79;76.19
37792;BME280;29527;55.766;37.570;2023-07-29T04:06:11;98736.59;;;16.84;76.45
37792;BME280;29527;55.766;37.570;2023-07-29T04:08:37;98733.50;;;16.87;76.48
37792;BME280;29527;55.766;37.570;2023-07-29T04:11:03;98738.56;;;16.90;76.11
37792;BME280;29527;55.766;37.570;2023-07-29T04:13:29;98725.06;;;16.90;75.91
37792;BME280;29527;55.766;37.570;2023-07-29T04:15:54;98726.50;;;16.92;75.73
37792;BME280;29527;55.766;37.570;2023-07-29T04:18:20;98725.88;;;16.90;75.61
37792;BME280;29527;55.766;37.570;2023-07-29T04:20:45;98729.44;;;16.91;75.71
37792;BME280;29527;55.766;37.570;2023-07-29T04:23:11;98726.72;;;16.91;75.30
37792;BME280;29527;55.766;37.570;2023-07-29T04:25:36;98729.03;;;16.94;75.30
37792;BME280;29527;55.766;37.570;2023-07-29T04:28:02;98735.25;;;16.94;75.46
37792;BME280;29527;55.766;37.570;2023-07-29T04:30:30;98729.97;;;17.01;75.45
37792;BME280;29527;55.766;37.570;2023-07-29T04:32:55;98729.66;;;17.11;75.31
37792;BME280;29527;55.766;37.570;2023-07-29T04:35:21;98728.84;;;17.17;74.51
37792;BME280;29527;55.766;37.570;2023-07-29T04:37:46;98716.19;;;17.18;74.20
37792;BME280;29527;55.766;37.570;2023-07-29T04:40:13;98688.63;;;17.07;73.87
37792;BME280;29527;55.766;37.570;2023-07-29T04:42:39;98725.00;;;17.27;73.45
37792;BME280;29527;55.766;37.570;2023-07-29T04:45:06;98730.41;;;17.27;73.33
37792;BME280;29527;55.766;37.570;2023-07-29T04:47:31;98723.69;;;17.22;73.31
37792;BME280;29527;55.766;37.570;2023-07-29T04:49:57;98729.72;;;17.18;73.54
37792;BME280;29527;55.766;37.570;2023-07-29T04:52:22;98651.41;;;16.66;73.64
37792;BME280;29527;55.766;37.570;2023-07-29T04:54:48;98730.75;;;17.17;73.55
37792;BME280;29527;55.766;37.570;2023-07-29T04:57:13;98707.13;;;17.04;73.60
37792;BME280;29527;55.766;37.570;2023-07-29T04:59:39;98691.81;;;16.96;73.09
37792;BME280;29527;55.766;37.570;2023-07-29T05:02:04;98721.34;;;17.13;73.50
37792;BME280;29527;55.766;37.570;2023-07-29T05:04:30;98716.59;;;17.15;73.40
37792;BME280;29527;55.766;37.570;2023-07-29T05:06:55;98721.38;;;17.19;73.43
37792;BME280;29527;55.766;37.570;2023-07-29T05:09:21;98706.66;;;17.22;73.39
37792;BME280;29527;55.766;37.570;2023-07-29T05:11:47;98706.91;;;17.27;73.31
37792;BME280;29527;55.766;37.570;2023-07-29T05:14:15;98711.91;;;17.30;73.30
37792;BME280;29527;55.766;37.570;2023-07-29T05:16:41;98715.00;;;17.27;73.08
37792;BME280;29527;55.766;37.570;2023-07-29T05:19:06;98680.50;;;17.07;73.26
37792;BME280;29527;55.766;37.570;2023-07-29T05:21:32;98693.13;;;17.22;73.28
37792;BME280;29527;55.766;37.570;2023-07-29T05:23:58;98694.22;;;17.28;72.80
37792;BME280;29527;55.766;37.570;2023-07-29T05:26:23;98688.59;;;17.29;72.58
37792;BME280;29527;55.766;37.570;2023-07-29T05:28:49;98685.50;;;17.32;73.22
37792;BME280;29527;55.766;37.570;2023-07-29T05:31:14;98685.97;;;17.36;72.77
37792;BME280;29527;55.766;37.570;2023-07-29T05:33:40;98685.81;;;17.44;72.21
37792;BME280;29527;55.766;37.570;2023-07-29T05:36:06;98659.94;;;17.35;72.08
37792;BME280;29527;55.766;37.570;2023-07-29T05:38:31;98683.88;;;17.67;71.80
37792;BME280;29527;55.766;37.570;2023-07-29T05:40:57;98684.84;;;17.87;71.38
37792;BME280;29527;55.766;37.570;2023-07-29T05:43:24;98686.59;;;18.02;70.62
37792;BME280;29527;55.766;37.570;2023-07-29T05:45:49;98681.63;;;18.05;69.96
37792;BME280;29527;55.766;37.570;2023-07-29T05:48:16;98683.13;;;18.15;70.15
37792;BME280;29527;55.766;37.570;2023-07-29T05:50:41;98691.88;;;18.17;69.76
37792;BME280;29527;55.766;37.570;2023-07-29T05:53:06;98701.72;;;18.25;69.67
37792;BME280;29527;55.766;37.570;2023-07-29T05:55:32;98688.34;;;18.16;69.34
37792;BME280;29527;55.766;37.570;2023-07-29T05:57:57;98701.31;;;18.28;68.88
37792;BME280;29527;55.766;37.570;2023-07-29T06:00:23;98698.19;;;18.24;68.71
37792;BME280;29527;55.766;37.570;2023-07-29T06:02:49;98709.63;;;18.19;68.85
37792;BME280;29527;55.766;37.570;2023-07-29T06:05:14;98703.75;;;18.09;68.95
37792;BME280;29527;55.766;37.570;2023-07-29T06:07:40;98724.59;;;18.15;69.39
37792;BME280;29527;55.766;37.570;2023-07-29T06:10:10;98725.47;;;18.22;69.17
37792;BME280;29527;55.766;37.570;2023-07-29T06:12:39;98719.25;;;18.29;68.71
37792;BME280;29527;55.766;37.570;2023-07-29T06:15:05;98697.28;;;18.10;68.94
37792;BME280;29527;55.766;37.570;2023-07-29T06:17:30;98704.75;;;18.08;68.78
37792;BME280;29527;55.766;37.570;2023-07-29T06:19:56;98735.25;;;18.24;68.92
37792;BME280;29527;55.766;37.570;2023-07-29T06:22:21;98734.22;;;18.25;69.38
37792;BME280;29527;55.766;37.570;2023-07-29T06:24:47;98736.75;;;18.26;69.13
37792;BME280;29527;55.766;37.570;2023-07-29T06:27:12;98722.53;;;18.17;69.18
37792;BME280;29527;55.766;37.570;2023-07-29T06:29:38;98713.88;;;18.00;69.54
37792;BME280;29527;55.766;37.570;2023-07-29T06:32:04;98743.47;;;18.02;69.79
37792;BME280;29527;55.766;37.570;2023-07-29T06:34:30;98755.53;;;17.99;70.38
37792;BME280;29527;55.766;37.570;2023-07-29T06:36:55;98748.06;;;18.01;71.07
37792;BME280;29527;55.766;37.570;2023-07-29T06:39:21;98746.63;;;18.05;70.43
37792;BME280;29527;55.766;37.570;2023-07-29T06:41:46;98761.25;;;18.11;70.12
37792;BME280;29527;55.766;37.570;2023-07-29T06:44:12;98761.69;;;18.15;70.69
37792;BME280;29527;55.766;37.570;2023-07-29T06:46:37;98771.28;;;18.17;70.94
37792;BME280;29527;55.766;37.570;2023-07-29T06:49:03;98756.72;;;18.18;71.02
37792;BME280;29527;55.766;37.570;2023-07-29T06:51:28;98766.50;;;18.19;70.67
37792;BME280;29527;55.766;37.570;2023-07-29T06:53:57;98766.50;;;18.19;70.33
37792;BME280;29527;55.766;37.570;2023-07-29T06:56:23;98755.91;;;18.25;70.49
37792;BME280;29527;55.766;37.570;2023-07-29T06:58:48;98763.63;;;18.28;69.92
37792;BME280;29527;55.766;37.570;2023-07-29T07:01:14;98762.59;;;18.29;70.03
37792;BME280;29527;55.766;37.570;2023-07-29T07:03:39;98772.66;;;18.35;70.25
37792;BME280;29527;55.766;37.570;2023-07-29T07:06:05;98758.84;;;18.30;69.71
37792;BME280;29527;55.766;37.570;2023-07-29T07:08:31;98761.75;;;18.28;69.38
37792;BME280;29527;55.766;37.570;2023-07-29T07:10:56;98774.22;;;18.22;70.10
37792;BME280;29527;55.766;37.570;2023-07-29T07:13:23;98775.44;;;18.20;70.08
37792;BME280;29527;55.766;37.570;2023-07-29T07:15:49;98778.56;;;18.17;70.17
37792;BME280;29527;55.766;37.570;2023-07-29T07:18:14;98770.84;;;18.14;69.58
37792;BME280;29527;55.766;37.570;2023-07-29T07:20:40;98760.84;;;18.14;70.25
37792;BME280;29527;55.766;37.570;2023-07-29T07:23:05;98737.03;;;18.03;69.82
37792;BME280;29527;55.766;37.570;2023-07-29T07:25:34;98773.81;;;18.26;69.95
37792;BME280;29527;55.766;37.570;2023-07-29T07:27:59;98766.97;;;18.30;70.02
37792;BME280;29527;55.766;37.570;2023-07-29T07:30:25;98761.94;;;18.27;69.55
37792;BME280;29527;55.766;37.570;2023-07-29T07:32:50;98771.53;;;18.22;69.76
37792;BME280;29527;55.766;37.570;2023-07-29T07:35:16;98758.78;;;18.16;70.42
37792;BME280;29527;55.766;37.570;2023-07-29T07:37:41;98768.84;;;18.29;70.02
37792;BME280;29527;55.766;37.570;2023-07-29T07:40:07;98765.56;;;18.34;70.10
37792;BME280;29527;55.766;37.570;2023-07-29T07:42:32;98771.44;;;18.44;69.59
37792;BME280;29527;55.766;37.570;2023-07-29T07:44:58;98768.13;;;18.56;69.31
37792;BME280;29527;55.766;37.570;2023-07-29T07:47:23;98771.91;;;18.61;69.17
37792;BME280;29527;55.766;37.570;2023-07-29T07:49:49;98778.41;;;18.67;69.29
37792;BME280;29527;55.766;37.570;2023-07-29T07:52:15;98776.97;;;18.71;69.02
37792;BME280;29527;55.766;37.570;2023-07-29T07:54:41;98766.53;;;18.68;69.28
37792;BME280;29527;55.766;37.570;2023-07-29T07:57:06;98777.19;;;18.70;69.17
37792;BME280;29527;55.766;37.570;2023-07-29T07:59:32;98778.00;;;18.70;69.35
37792;BME280;29527;55.766;37.570;2023-07-29T08:01:57;98785.91;;;18.65;68.80
37792;BME280;29527;55.766;37.570;2023-07-29T08:04:23;98769.19;;;18.61;69.41
37792;BME280;29527;55.766;37.570;2023-07-29T08:06:48;98772.09;;;18.53;69.59
37792;BME280;29527;55.766;37.570;2023-07-29T08:09:14;98770.56;;;18.44;70.03
37792;BME280;29527;55.766;37.570;2023-07-29T08:11:40;98786.25;;;18.48;70.83
37792;BME280;29527;55.766;37.570;2023-07-29T08:14:06;98773.31;;;18.50;69.87
37792;BME280;29527;55.766;37.570;2023-07-29T08:16:31;98772.91;;;18.54;70.05
37792;BME280;29527;55.766;37.570;2023-07-29T08:18:56;98773.19;;;18.59;70.09
37792;BME280;29527;55.766;37.570;2023-07-29T08:21:22;98782.78;;;18.68;70.08
37792;BME280;29527;55.766;37.570;2023-07-29T08:23:47;98784.50;;;18.76;70.54
37792;BME280;29527;55.766;37.570;2023-07-29T08:26:13;98777.44;;;18.82;70.57
37792;BME280;29527;55.766;37.570;2023-07-29T08:28:39;98788.28;;;18.88;70.29
37792;BME280;29527;55.766;37.570;2023-07-29T08:31:06;98773.88;;;18.81;69.21
37792;BME280;29527;55.766;37.570;2023-07-29T08:33:32;98790.78;;;18.90;69.49
37792;BME280;29527;55.766;37.570;2023-07-29T08:36:01;98788.31;;;18.95;69.59
37792;BME280;29527;55.766;37.570;2023-07-29T08:38:27;98743.41;;;18.79;69.15
37792;BME280;29527;55.766;37.570;2023-07-29T08:43:39;98780.91;;;19.38;69.25
37792;BME280;29527;55.766;37.570;2023-07-29T08:46:09;98736.84;;;19.22;68.26
37792;BME280;29527;55.766;37.570;2023-07-29T08:48:42;98791.56;;;19.79;67.16
37792;BME280;29527;55.766;37.570;2023-07-29T08:51:10;98784.66;;;19.77;66.89
37792;BME280;29527;55.766;37.570;2023-07-29T08:53:36;98789.47;;;19.88;66.55
37792;BME280;29527;55.766;37.570;2023-07-29T08:56:03;98788.88;;;19.93;66.13
37792;BME280;29527;55.766;37.570;2023-07-29T08:58:29;98788.66;;;19.81;65.93
37792;BME280;29527;55.766;37.570;2023-07-29T09:00:55;98794.06;;;19.68;66.13
37792;BME280;29527;55.766;37.570;2023-07-29T09:03:21;98783.00;;;19.56;65.99
37792;BME280;29527;55.766;37.570;2023-07-29T09:05:47;98775.06;;;19.41;66.76
37792;BME280;29527;55.766;37.570;2023-07-29T09:08:13;98776.94;;;19.40;66.51
37792;BME280;29527;55.766;37.570;2023-07-29T09:10:39;98775.91;;;19.34;66.69
37792;BME280;29527;55.766;37.570;2023-07-29T09:13:05;98777.13;;;19.32;67.31
37792;BME280;29527;55.766;37.570;2023-07-29T09:15:33;98779.25;;;19.36;67.59
37792;BME280;29527;55.766;37.570;2023-07-29T09:17:59;98783.41;;;19.39;66.89
37792;BME280;29527;55.766;37.570;2023-07-29T09:20:33;98769.00;;;19.32;66.04
37792;BME280;29527;55.766;37.570;2023-07-29T09:22:59;98784.66;;;19.30;66.83
37792;BME280;29527;55.766;37.570;2023-07-29T09:25:27;98782.56;;;19.25;67.40
37792;BME280;29527;55.766;37.570;2023-07-29T09:27:58;98788.19;;;19.24;66.64
37792;BME280;29527;55.766;37.570;2023-07-29T09:30:23;98794.28;;;19.32;66.92
37792;BME280;29527;55.766;37.570;2023-07-29T09:32:55;98791.31;;;19.27;66.71
37792;BME280;29527;55.766;37.570;2023-07-29T09:35:20;98775.44;;;19.11;67.15
37792;BME280;29527;55.766;37.570;2023-07-29T09:37:46;98794.66;;;19.16;67.15
37792;BME280;29527;55.766;37.570;2023-07-29T09:40:14;98804.03;;;19.13;67.25
37792;BME280;29527;55.766;37.570;2023-07-29T09:42:51;98803.00;;;19.07;67.69
37792;BME280;29527;55.766;37.570;2023-07-29T09:45:24;98800.25;;;19.01;67.76
37792;BME280;29527;55.766;37.570;2023-07-29T09:47:52;98801.19;;;18.79;68.67
37792;BME280;29527;55.766;37.570;2023-07-29T09:50:18;98804.31;;;18.83;68.05
37792;BME280;29527;55.766;37.570;2023-07-29T09:52:44;98806.66;;;18.93;67.55
37792;BME280;29527;55.766;37.570;2023-07-29T09:55:12;98805.47;;;19.09;68.23
37792;BME280;29527;55.766;37.570;2023-07-29T09:57:39;98804.25;;;19.12;67.69
37792;BME280;29527;55.766;37.570;2023-07-29T10:00:06;98801.31;;;19.13;67.41
37792;BME280;29527;55.766;37.570;2023-07-29T10:02:38;98801.97;;;19.22;67.18
37792;BME280;29527;55.766;37.570;2023-07-29T10:05:05;98804.50;;;19.30;67.50
37792;BME280;29527;55.766;37.570;2023-07-29T10:07:33;98810.13;;;19.35;67.44
37792;BME280;29527;55.766;37.570;2023-07-29T10:09:58;98796.38;;;19.30;67.38
37792;BME280;29527;55.766;37.570;2023-07-29T10:12:25;98810.53;;;19.39;67.18
37792;BME280;29527;55.766;37.570;2023-07-29T10:14:52;98798.66;;;19.40;66.99
37792;BME280;29527;55.766;37.570;2023-07-29T10:17:19;98814.75;;;19.55;66.84
37792;BME280;29527;55.766;37.570;2023-07-29T10:19:46;98804.31;;;19.59;66.22
37792;BME280;29527;55.766;37.570;2023-07-29T10:22:13;98805.78;;;19.68;66.79
37792;BME280;29527;55.766;37.570;2023-07-29T10:24:42;98807.25;;;19.77;66.28
37792;BME280;29527;55.766;37.570;2023-07-29T10:27:11;98804.53;;;19.84;64.66
37792;BME280;29527;55.766;37.570;2023-07-29T10:29:41;98812.69;;;19.84;65.08
37792;BME280;29527;55.766;37.570;2023-07-29T10:32:11;98814.34;;;19.85;65.47
37792;BME280;29527;55.766;37.570;2023-07-29T10:34:37;98808.28;;;19.70;65.51
37792;BME280;29527;55.766;37.570;2023-07-29T10:37:04;98816.00;;;19.73;66.46
37792;BME280;29527;55.766;37.570;2023-07-29T10:39:40;98825.19;;;19.72;66.56
37792;BME280;29527;55.766;37.570;2023-07-29T10:42:06;98811.41;;;19.53;66.94
37792;BME280;29527;55.766;37.570;2023-07-29T10:47:16;98817.66;;;19.47;67.29
37792;BME280;29527;55.766;37.570;2023-07-29T10:49:46;98817.03;;;19.51;66.35
37792;BME280;29527;55.766;37.570;2023-07-29T10:52:16;98815.38;;;19.57;67.28
37792;BME280;29527;55.766;37.570;2023-07-29T10:54:47;98810.16;;;19.62;67.37
37792;BME280;29527;55.766;37.570;2023-07-29T10:57:14;98811.59;;;19.65;66.04
37792;BME280;29527;55.766;37.570;2023-07-29T10:59:41;98805.78;;;19.68;66.22
37792;BME280;29527;55.766;37.570;2023-07-29T11:02:17;98807.03;;;19.79;66.14
37792;BME280;29527;55.766;37.570;2023-07-29T11:04:49;98805.56;;;19.70;65.88
37792;BME280;29527;55.766;37.570;2023-07-29T11:17:42;98807.44;;;19.76;66.62
37792;BME280;29527;55.766;37.570;2023-07-29T11:20:08;98810.16;;;19.83;67.62
37792;BME280;29527;55.766;37.570;2023-07-29T11:22:34;98799.53;;;20.01;66.36
37792;BME280;29527;55.766;37.570;2023-07-29T11:25:00;98808.50;;;20.15;65.40
37792;BME280;29527;55.766;37.570;2023-07-29T11:27:25;98802.63;;;20.18;64.07
37792;BME280;29527;55.766;37.570;2023-07-29T11:30:04;98809.53;;;20.28;64.77
37792;BME280;29527;55.766;37.570;2023-07-29T11:32:34;98806.41;;;20.17;63.44
37792;BME280;29527;55.766;37.570;2023-07-29T11:35:04;98803.88;;;20.22;64.00
37792;BME280;29527;55.766;37.570;2023-07-29T11:37:30;98805.16;;;20.06;64.32
37792;BME280;29527;55.766;37.570;2023-07-29T11:39:56;98813.97;;;20.02;64.01
37792;BME280;29527;55.766;37.570;2023-07-29T11:42:21;98813.06;;;19.88;64.46
37792;BME280;29527;55.766;37.570;2023-07-29T11:44:47;98820.41;;;19.87;65.02
37792;BME280;29527;55.766;37.570;2023-07-29T11:47:13;98833.78;;;19.82;65.67
37792;BME280;29527;55.766;37.570;2023-07-29T11:49:39;98836.50;;;19.82;65.54
37792;BME280;29527;55.766;37.570;2023-07-29T11:52:07;98798.06;;;19.58;64.76
37792;BME280;29527;55.766;37.570;2023-07-29T11:54:34;98844.84;;;19.74;65.00
37792;BME280;29527;55.766;37.570;2023-07-29T11:57:00;98834.16;;;19.59;65.67
37792;BME280;29527;55.766;37.570;2023-07-29T11:59:27;98844.22;;;19.58;64.68
37792;BME280;29527;55.766;37.570;2023-07-29T12:01:53;98840.88;;;19.56;64.78
37792;BME280;29527;55.766;37.570;2023-07-29T12:04:19;98825.81;;;19.47;64.73
37792;BME280;29527;55.766;37.570;2023-07-29T12:06:45;98844.84;;;19.60;64.64
37792;BME280;29527;55.766;37.570;2023-07-29T12:09:11;98844.00;;;19.60;64.56
37792;BME280;29527;55.766;37.570;2023-07-29T12:11:39;98831.25;;;19.54;64.62
37792;BME280;29527;55.766;37.570;2023-07-29T12:14:07;98848.19;;;19.62;64.98
37792;BME280;29527;55.766;37.570;2023-07-29T12:16:43;98840.66;;;19.71;64.76
37792;BME280;29527;55.766;37.570;2023-07-29T12:19:08;98809.75;;;19.45;64.39
37792;BME280;29527;55.766;37.570;2023-07-29T12:21:35;98839.81;;;19.71;64.61
37792;BME280;29527;55.766;37.570;2023-07-29T12:24:02;98836.06;;;19.78;64.91
37792;BME280;29527;55.766;37.570;2023-07-29T12:26:29;98827.91;;;19.78;63.66
37792;BME280;29527;55.766;37.570;2023-07-29T12:28:54;98826.44;;;19.76;63.55
37792;BME280;29527;55.766;37.570;2023-07-29T12:31:21;98830.63;;;19.72;63.95
37792;BME280;29527;55.766;37.570;2023-07-29T12:33:47;98804.31;;;19.65;64.76
37792;BME280;29527;55.766;37.570;2023-07-29T12:36:13;98802.44;;;19.59;63.84
37792;BME280;29527;55.766;37.570;2023-07-29T12:38:38;98815.59;;;19.76;64.02
37792;BME280;29527;55.766;37.570;2023-07-29T12:41:03;98832.50;;;19.85;62.95
37792;BME280;29527;55.766;37.570;2023-07-29T12:43:29;98823.34;;;19.79;63.26
37792;BME280;29527;55.766;37.570;2023-07-29T12:45:57;98827.50;;;19.88;63.65
37792;BME280;29527;55.766;37.570;2023-07-29T12:48:23;98823.13;;;19.80;63.25
37792;BME280;29527;55.766;37.570;2023-07-29T12:50:48;98821.66;;;19.85;63.02
37792;BME280;29527;55.766;37.570;2023-07-29T12:53:14;98817.25;;;19.77;62.49
37792;BME280;29527;55.766;37.570;2023-07-29T12:55:39;98821.66;;;19.85;61.78
37792;BME280;29527;55.766;37.570;2023-07-29T12:58:05;98816.84;;;19.87;61.23
37792;BME280;29527;55.766;37.570;2023-07-29T13:00:30;98819.34;;;19.88;61.64
37792;BME280;29527;55.766;37.570;2023-07-29T13:02:56;98819.16;;;19.90;61.48
37792;BME280;29527;55.766;37.570;2023-07-29T13:05:22;98824.16;;;19.86;61.72
37792;BME280;29527;55.766;37.570;2023-07-29T13:07:47;98821.03;;;19.83;61.69
37792;BME280;29527;55.766;37.570;2023-07-29T13:10:13;98824.59;;;19.83;60.10